Time;durP1;ratioP1;P1;durP2;ratioP2;P2;SDS_P1;SDS_P2;PMS_P1;PMS_P2;Temp;Humidity;BMP_temperature;BMP_pressure;BME280_temperature;BME280_humidity;BME280_pressure;Samples;Min_cycle;Max_cycle;Signal;HPM_P1;HPM_P2
2022/05/08 00:01:42;;;;;;;17.85;5.05;;;10.60;93.60;;;;;;5014522;28;95687;-70
2022/05/08 00:04:09;;;;;;;15.68;4.38;;;10.50;93.70;;;;;;5015026;28;94885;-71
2022/05/08 00:06:36;;;;;;;12.80;4.55;;;10.50;93.80;;;;;;5016111;28;92417;-70
2022/05/08 00:09:03;;;;;;;17.42;4.13;;;10.50;93.90;;;;;;4997912;28;92553;-71
2022/05/08 00:11:30;;;;;;;18.67;5.15;;;10.40;94.10;;;;;;5014385;28;93362;-70
2022/05/08 00:13:57;;;;;;;16.83;4.75;;;10.40;94.20;;;;;;5016177;28;92937;-70
2022/05/08 00:16:24;;;;;;;15.57;4.50;;;10.40;94.30;;;;;;5015022;28;96941;-71
2022/05/08 00:18:51;;;;;;;16.90;5.15;;;10.40;94.40;;;;;;4998507;28;92528;-71
2022/05/08 00:21:18;;;;;;;19.67;4.82;;;10.40;94.20;;;;;;5016325;28;92433;-70
2022/05/08 00:23:46;;;;;;;14.90;4.88;;;10.30;94.40;;;;;;5014681;28;92495;-70
2022/05/08 00:26:13;;;;;;;18.25;4.63;;;10.30;94.30;;;;;;5014779;28;92573;-70
2022/05/08 00:28:40;;;;;;;15.23;5.47;;;10.30;94.20;;;;;;5013658;28;95327;-71
2022/05/08 00:31:11;;;;;;;18.42;4.88;;;10.30;94.20;;;;;;5014104;28;97022;-70
2022/05/08 00:33:39;;;;;;;18.63;5.07;;;10.30;94.30;;;;;;5014068;28;95602;-71
2022/05/08 00:36:06;;;;;;;14.15;4.50;;;10.30;94.30;;;;;;5014793;28;92477;-70
2022/05/08 00:38:34;;;;;;;18.38;4.72;;;10.30;94.30;;;;;;5013783;28;92916;-70
2022/05/08 00:41:01;;;;;;;17.02;4.57;;;10.20;94.30;;;;;;4997198;28;95908;-70
2022/05/08 00:43:34;;;;;;;19.02;5.28;;;10.20;94.30;;;;;;5015451;28;93092;-70
2022/05/08 00:46:06;;;;;;;20.83;4.83;;;10.20;94.40;;;;;;5014910;28;91803;-71
2022/05/08 00:48:34;;;;;;;18.85;5.72;;;10.20;94.40;;;;;;5015726;28;92442;-71
2022/05/08 00:51:04;;;;;;;18.38;5.55;;;10.10;94.50;;;;;;5013632;28;106285;-70
2022/05/08 00:53:38;;;;;;;17.50;5.78;;;10.10;94.70;;;;;;5014023;28;94859;-70
2022/05/08 00:56:07;;;;;;;17.75;4.60;;;10.10;94.90;;;;;;5015812;28;92513;-70
2022/05/08 00:58:36;;;;;;;16.63;5.15;;;10.10;95.00;;;;;;4997383;28;92547;-70
2022/05/08 01:01:04;;;;;;;21.73;5.72;;;10.00;95.30;;;;;;5013837;28;95820;-70
2022/05/08 01:03:32;;;;;;;17.10;5.38;;;10.00;95.60;;;;;;5014784;28;93033;-70
2022/05/08 01:06:04;;;;;;;19.40;5.63;;;10.00;95.90;;;;;;5014377;28;92346;-70
2022/05/08 01:08:33;;;;;;;15.93;5.50;;;10.00;95.90;;;;;;4997722;28;92547;-70
2022/05/08 01:11:06;;;;;;;19.70;5.38;;;9.90;95.80;;;;;;5015431;28;92512;-70
2022/05/08 01:13:33;;;;;;;18.63;5.07;;;10.00;95.80;;;;;;4996926;28;97936;-70
2022/05/08 01:16:00;;;;;;;24.65;5.63;;;9.90;95.90;;;;;;5014963;28;92456;-71
2022/05/08 01:18:28;;;;;;;22.75;5.60;;;9.90;95.90;;;;;;5012610;28;94878;-71
2022/05/08 01:20:55;;;;;;;17.50;5.28;;;9.90;96.00;;;;;;5014786;28;92937;-70
2022/05/08 01:23:22;;;;;;;21.23;5.68;;;9.80;96.20;;;;;;5014062;28;92599;-71
2022/05/08 01:25:49;;;;;;;19.85;6.22;;;9.80;96.40;;;;;;5013501;28;101270;-71
2022/05/08 01:28:16;;;;;;;22.65;5.95;;;9.80;96.60;;;;;;5015470;28;92335;-71
2022/05/08 01:30:45;;;;;;;21.85;6.22;;;9.70;96.90;;;;;;5014703;28;93163;-71
2022/05/08 01:33:13;;;;;;;14.77;5.57;;;9.70;97.10;;;;;;5014891;28;92752;-70
2022/05/08 01:35:42;;;;;;;17.05;6.03;;;9.70;97.20;;;;;;5013765;28;91669;-70
2022/05/08 01:38:12;;;;;;;19.45;6.03;;;9.70;97.10;;;;;;5014959;28;92511;-70
2022/05/08 01:40:40;;;;;;;15.75;5.78;;;9.60;97.30;;;;;;5014620;28;93164;-70
2022/05/08 01:43:07;;;;;;;17.85;5.75;;;9.60;97.30;;;;;;4998279;28;94867;-71
2022/05/08 01:45:34;;;;;;;17.83;5.55;;;9.60;97.20;;;;;;5018610;28;92917;-71
2022/05/08 01:50:48;;;;;;;16.10;5.53;;;9.50;97.70;;;;;;5018004;28;92423;-70
2022/05/08 01:53:15;;;;;;;19.90;6.07;;;9.50;97.80;;;;;;4999997;28;96081;-70
2022/05/08 01:55:41;;;;;;;25.30;5.93;;;9.40;98.00;;;;;;5016742;28;92472;-70
2022/05/08 01:58:08;;;;;;;16.55;6.22;;;9.40;98.00;;;;;;5018442;28;92876;-71
2022/05/08 02:00:35;;;;;;;19.95;5.60;;;9.40;98.00;;;;;;5016831;28;108266;-71
2022/05/08 02:03:05;;;;;;;16.70;6.30;;;9.40;98.00;;;;;;5016663;28;94687;-71
2022/05/08 02:05:32;;;;;;;19.55;5.90;;;9.40;98.00;;;;;;5018196;28;93003;-71
2022/05/08 02:08:01;;;;;;;21.63;6.10;;;9.40;98.00;;;;;;5015395;28;95428;-71
2022/05/08 02:10:28;;;;;;;18.40;5.65;;;9.30;98.10;;;;;;5017548;28;93318;-70
2022/05/08 02:12:55;;;;;;;16.38;5.75;;;9.30;98.50;;;;;;5016250;28;92471;-70
2022/05/08 02:15:29;;;;;;;17.55;5.93;;;9.30;99.00;;;;;;5016333;28;93111;-70
2022/05/08 02:18:02;;;;;;;;;;;9.30;98.90;;;;;;5018190;28;92772;-70
2022/05/08 02:20:29;;;;;;;18.00;5.40;;;9.20;99.00;;;;;;5019155;28;93279;-70
2022/05/08 02:22:57;;;;;;;14.60;5.22;;;9.10;99.70;;;;;;5015788;28;93007;-70
2022/05/08 02:25:26;;;;;;;17.95;6.10;;;9.20;99.60;;;;;;5018379;28;91681;-70
2022/05/08 02:27:54;;;;;;;17.75;5.80;;;9.20;99.70;;;;;;5017626;28;92790;-72
2022/05/08 02:30:22;;;;;;;19.70;6.03;;;9.20;99.50;;;;;;5017592;28;93299;-71
2022/05/08 02:32:53;;;;;;;23.50;5.40;;;9.20;99.20;;;;;;5015173;28;95414;-71
2022/05/08 02:35:22;;;;;;;19.23;6.32;;;9.20;99.20;;;;;;5016215;28;92498;-70
2022/05/08 02:37:52;;;;;;;14.55;5.47;;;9.10;99.30;;;;;;5016092;28;92563;-70
2022/05/08 02:40:19;;;;;;;23.33;6.43;;;9.10;99.30;;;;;;5017288;28;94624;-70
2022/05/08 02:42:46;;;;;;;12.95;5.35;;;9.10;99.30;;;;;;5015834;28;95710;-70
2022/05/08 02:45:14;;;;;;;14.80;5.65;;;9.10;99.00;;;;;;5017636;28;92447;-70
2022/05/08 02:47:43;;;;;;;13.60;5.93;;;9.10;98.70;;;;;;5017177;28;92575;-70
2022/05/08 02:50:11;;;;;;;11.95;5.18;;;9.10;98.10;;;;;;5017609;28;91653;-70
2022/05/08 02:52:39;;;;;;;12.77;4.63;;;9.10;97.50;;;;;;5017230;28;92645;-70
2022/05/08 03:00:42;;;;;;;13.57;5.13;;;8.90;97.20;;;;;;5012644;28;95772;-70
2022/05/08 03:03:10;;;;;;;16.40;6.15;;;8.90;97.30;;;;;;5015280;28;95649;-70
2022/05/08 03:05:41;;;;;;;18.50;5.57;;;8.90;97.20;;;;;;5016402;28;102790;-70
2022/05/08 03:08:08;;;;;;;17.45;5.95;;;8.90;97.20;;;;;;5015433;28;92460;-70
2022/05/08 03:13:21;;;;;;;20.40;6.47;;;8.90;97.50;;;;;;5015955;28;92923;-70
2022/05/08 03:15:48;;;;;;;12.85;4.72;;;8.80;97.20;;;;;;4999518;28;91765;-70
2022/05/08 03:18:18;;;;;;;18.15;5.93;;;8.80;97.30;;;;;;5016104;28;93212;-70
2022/05/08 03:20:48;;;;;;;13.55;4.82;;;8.80;97.30;;;;;;5015923;28;92931;-70
2022/05/08 03:23:15;;;;;;;14.32;4.80;;;8.80;97.00;;;;;;5013963;28;101700;-70
2022/05/08 03:25:43;;;;;;;15.85;5.35;;;8.80;96.80;;;;;;5015682;28;92499;-70
2022/05/08 03:28:11;;;;;;;13.00;5.28;;;8.80;96.60;;;;;;5016797;28;93043;-70
2022/05/08 03:30:40;;;;;;;13.15;5.25;;;8.70;96.70;;;;;;5015379;28;93121;-71
2022/05/08 03:33:09;;;;;;;15.07;5.15;;;8.70;96.50;;;;;;5016460;28;93603;-70
2022/05/08 03:35:41;;;;;;;12.80;5.40;;;8.70;96.40;;;;;;5015424;28;92880;-70
2022/05/08 03:38:08;;;;;;;11.90;5.30;;;8.70;96.30;;;;;;5014867;28;92410;-70
2022/05/08 03:40:36;;;;;;;13.75;5.20;;;8.70;96.30;;;;;;5016985;28;92398;-70
2022/05/08 03:43:03;;;;;;;12.00;4.82;;;8.70;96.30;;;;;;5016359;28;92456;-70
2022/05/08 03:45:30;;;;;;;16.65;5.30;;;8.70;96.20;;;;;;5014950;28;92472;-70
2022/05/08 03:48:00;;;;;;;12.70;4.93;;;8.60;96.20;;;;;;5015535;28;95165;-70
2022/05/08 03:50:28;;;;;;;18.52;5.30;;;8.70;96.10;;;;;;5016306;28;94324;-70
2022/05/08 03:52:59;;;;;;;13.27;5.30;;;8.60;96.10;;;;;;5016213;28;93068;-70
2022/05/08 03:55:26;;;;;;;12.45;5.25;;;8.70;95.90;;;;;;5016616;28;92437;-70
2022/05/08 03:57:53;;;;;;;17.88;5.00;;;8.70;95.80;;;;;;5015075;28;92511;-70
2022/05/08 04:00:20;;;;;;;11.55;4.60;;;8.70;95.80;;;;;;5014953;28;93187;-70
2022/05/08 04:02:48;;;;;;;14.77;4.97;;;8.70;95.60;;;;;;5014913;28;93075;-70
2022/05/08 04:05:15;;;;;;;11.90;4.30;;;8.70;95.60;;;;;;5014499;28;91856;-70
2022/05/08 04:07:42;;;;;;;14.73;5.30;;;8.70;95.60;;;;;;5016237;28;92431;-70
2022/05/08 04:10:09;;;;;;;17.08;5.70;;;8.70;95.60;;;;;;5015825;28;93093;-70
2022/05/08 04:12:36;;;;;;;18.60;5.13;;;8.80;95.70;;;;;;5013385;28;95605;-70
2022/05/08 04:16:15;;;;;;;18.50;5.20;;;8.80;95.60;;;;;;5015920;28;92451;-70
2022/05/08 04:17:53;;;;;;;12.18;4.80;;;8.80;95.40;;;;;;5015824;28;92421;-70
2022/05/08 04:20:21;;;;;;;7.38;4.40;;;8.90;95.20;;;;;;5014214;28;96598;-70
2022/05/08 04:25:33;;;;;;;8.88;4.82;;;9.00;95.20;;;;;;5016275;28;92339;-70
2022/05/08 04:28:00;;;;;;;11.85;5.00;;;9.20;95.00;;;;;;5015877;28;92912;-70
2022/05/08 04:30:27;;;;;;;12.27;5.18;;;9.30;94.90;;;;;;5016185;28;92461;-70
2022/05/08 04:32:53;;;;;;;11.07;4.40;;;9.40;94.80;;;;;;5015639;28;95490;-70
2022/05/08 04:35:20;;;;;;;9.20;4.47;;;9.50;94.70;;;;;;5014115;28;92435;-70
2022/05/08 04:37:47;;;;;;;10.55;4.75;;;9.70;94.80;;;;;;5013487;28;95430;-70
2022/05/08 04:40:14;;;;;;;11.10;4.80;;;9.80;94.40;;;;;;5015540;28;92474;-70
2022/05/08 04:42:41;;;;;;;15.45;5.13;;;10.00;94.20;;;;;;5015417;28;93173;-70
2022/05/08 04:45:08;;;;;;;14.00;5.18;;;10.10;93.90;;;;;;5015772;28;92586;-70
2022/05/08 04:47:36;;;;;;;14.80;5.00;;;10.20;93.80;;;;;;5015885;28;92528;-70
2022/05/08 04:50:03;;;;;;;9.80;4.25;;;10.40;93.60;;;;;;5013623;28;95699;-70
2022/05/08 04:52:30;;;;;;;9.77;4.53;;;10.60;93.40;;;;;;5015413;28;92429;-70
2022/05/08 04:54:58;;;;;;;10.77;4.28;;;10.90;93.00;;;;;;5014968;28;91725;-71
2022/05/08 04:57:25;;;;;;;13.30;5.40;;;11.10;92.60;;;;;;5014135;28;92490;-70
2022/05/08 04:59:51;;;;;;;8.32;4.43;;;11.30;92.20;;;;;;5013968;28;95689;-70
2022/05/08 05:02:18;;;;;;;12.27;4.03;;;11.30;92.00;;;;;;5013740;28;94732;-70
2022/05/08 05:04:45;;;;;;;8.85;4.38;;;11.50;91.80;;;;;;5015345;28;92394;-71
2022/05/08 05:07:12;;;;;;;11.68;4.05;;;11.50;91.60;;;;;;5015179;28;92553;-70
2022/05/08 05:09:39;;;;;;;12.13;4.82;;;11.50;91.60;;;;;;5015414;28;93436;-71
2022/05/08 05:12:06;;;;;;;12.77;4.65;;;11.60;91.40;;;;;;5013124;28;105657;-70
2022/05/08 05:14:33;;;;;;;14.10;4.35;;;11.70;91.30;;;;;;5013960;28;92478;-70
2022/05/08 05:17:00;;;;;;;14.80;4.63;;;11.80;91.10;;;;;;5013926;28;94232;-70
2022/05/08 05:19:28;;;;;;;11.02;4.00;;;12.10;91.00;;;;;;5001184;28;92656;-71
2022/05/08 05:21:55;;;;;;;8.65;3.28;;;12.40;90.60;;;;;;5000558;28;93274;-71
2022/05/08 05:24:22;;;;;;;8.73;3.10;;;13.00;89.60;;;;;;5018664;28;93329;-71
2022/05/08 05:26:48;;;;;;;7.15;3.33;;;13.50;87.30;;;;;;5017625;28;94864;-71
2022/05/08 05:29:16;;;;;;;11.00;3.35;;;14.00;84.80;;;;;;5016933;28;95668;-71
2022/05/08 05:31:43;;;;;;;10.27;3.55;;;14.40;83.60;;;;;;5017271;28;92929;-71
2022/05/08 05:34:10;;;;;;;9.70;3.15;;;14.60;81.90;;;;;;5017117;28;92439;-71
2022/05/08 05:36:37;;;;;;;8.50;2.95;;;14.90;81.30;;;;;;5018826;28;92407;-71
2022/05/08 05:39:04;;;;;;;9.23;3.58;;;15.10;79.10;;;;;;5017155;28;92452;-71
2022/05/08 05:41:32;;;;;;;9.88;3.15;;;15.30;78.40;;;;;;5018133;28;92894;-71
2022/05/08 05:44:03;;;;;;;7.97;3.03;;;15.30;78.00;;;;;;5019060;28;91730;-71
2022/05/08 05:49:16;;;;;;;6.85;3.13;;;15.40;77.50;;;;;;5017231;28;92956;-71
2022/05/08 05:51:43;;;;;;;9.70;3.55;;;15.60;77.20;;;;;;4999133;28;94880;-71
2022/05/08 05:54:10;;;;;;;12.48;3.78;;;15.70;77.30;;;;;;5016687;28;92527;-71
2022/05/08 05:56:37;;;;;;;9.38;3.05;;;15.70;77.30;;;;;;5017221;28;93075;-71
2022/05/08 05:59:04;;;;;;;8.50;3.13;;;15.50;76.30;;;;;;5016984;28;93461;-71
2022/05/08 06:01:51;;;;;;;10.55;3.35;;;15.50;77.10;;;;;;5016635;28;94249;-71
2022/05/08 06:04:18;;;;;;;7.75;3.00;;;15.40;77.00;;;;;;5016600;28;92550;-71
2022/05/08 06:06:45;;;;;;;9.90;2.58;;;15.20;76.50;;;;;;5016645;28;92509;-71
2022/05/08 06:09:12;;;;;;;8.15;3.30;;;15.20;77.00;;;;;;5016425;28;107737;-71
2022/05/08 06:11:39;;;;;;;6.68;2.83;;;15.20;77.70;;;;;;5016755;28;92479;-71
2022/05/08 06:14:06;;;;;;;9.55;2.90;;;15.30;77.90;;;;;;5016673;28;92504;-71
2022/05/08 06:16:32;;;;;;;8.98;2.67;;;15.50;77.60;;;;;;5016229;28;94873;-73
2022/05/08 06:19:00;;;;;;;10.63;2.90;;;15.60;76.10;;;;;;5016750;28;93298;-71
2022/05/08 06:21:27;;;;;;;6.22;2.65;;;15.50;74.90;;;;;;5017591;28;93062;-71
2022/05/08 06:23:54;;;;;;;8.95;2.58;;;15.50;75.20;;;;;;5016526;28;92440;-71
2022/05/08 06:26:21;;;;;;;7.68;2.42;;;15.40;74.70;;;;;;5017640;28;92409;-71
2022/05/08 06:28:48;;;;;;;10.05;2.92;;;15.40;74.70;;;;;;5015792;28;95905;-71
2022/05/08 06:31:18;;;;;;;6.32;2.15;;;15.50;74.70;;;;;;5015575;28;95564;-71
2022/05/08 06:33:45;;;;;;;11.45;3.92;;;15.60;74.80;;;;;;5016904;28;91805;-71
2022/05/08 06:36:13;;;;;;;9.63;2.60;;;15.60;74.50;;;;;;5016272;28;92489;-71
2022/05/08 06:38:40;;;;;;;6.95;2.00;;;15.60;73.50;;;;;;5017344;28;92398;-71
2022/05/08 06:41:07;;;;;;;8.45;2.85;;;15.60;74.60;;;;;;5016272;28;94770;-71
2022/05/08 06:43:33;;;;;;;6.15;2.15;;;15.50;73.70;;;;;;5016066;28;92421;-71
2022/05/08 06:46:00;;;;;;;7.20;2.42;;;15.40;74.00;;;;;;4999498;28;92554;-71
2022/05/08 06:48:28;;;;;;;9.63;2.20;;;15.30;75.00;;;;;;4999350;28;92509;-71
2022/05/08 06:50:55;;;;;;;7.85;2.95;;;15.20;74.50;;;;;;4998509;28;115069;-71
2022/05/08 06:53:21;;;;;;;6.85;2.58;;;14.90;74.00;;;;;;5017287;28;92335;-71
2022/05/08 06:55:48;;;;;;;8.35;2.33;;;14.80;74.40;;;;;;5017549;28;92453;-71
2022/05/08 06:58:15;;;;;;;10.88;2.63;;;14.70;74.80;;;;;;5016010;28;95274;-71
2022/05/08 07:03:28;;;;;;;7.28;2.20;;;14.80;75.20;;;;;;5017417;28;92845;-71
2022/05/08 07:05:56;;;;;;;8.32;1.63;;;14.70;75.00;;;;;;5016185;28;94851;-71
2022/05/08 07:08:23;;;;;;;6.38;2.22;;;14.70;76.10;;;;;;5016891;28;93189;-71
2022/05/08 07:10:50;;;;;;;9.13;2.75;;;14.80;75.00;;;;;;4998605;28;95464;-70
2022/05/08 07:13:22;;;;;;;7.82;2.90;;;14.80;75.30;;;;;;5015734;28;92449;-70
2022/05/08 07:15:49;;;;;;;7.07;2.17;;;14.90;75.60;;;;;;5015674;28;92442;-70
2022/05/08 07:18:24;;;;;;;4.05;1.83;;;14.90;75.10;;;;;;5015356;28;94790;-71
2022/05/08 07:20:51;;;;;;;5.28;2.75;;;15.30;75.10;;;;;;5015659;28;92664;-71
2022/05/08 07:23:18;;;;;;;10.15;3.13;;;15.40;74.40;;;;;;5016368;28;92329;-71
2022/05/08 07:25:46;;;;;;;10.30;2.63;;;15.70;74.30;;;;;;5015285;28;92503;-71
2022/05/08 07:28:13;;;;;;;5.75;2.40;;;15.80;73.70;;;;;;5015303;28;95757;-71
2022/05/08 07:30:41;;;;;;;6.53;2.33;;;15.90;73.40;;;;;;5014111;28;95355;-71
2022/05/08 07:33:08;;;;;;;11.63;3.13;;;15.90;72.90;;;;;;5015425;28;92627;-71
2022/05/08 07:38:25;;;;;;;6.38;2.58;;;16.00;72.60;;;;;;5017007;28;93316;-71
2022/05/08 07:40:58;;;;;;;6.03;2.95;;;16.00;72.20;;;;;;5015939;28;94859;-71
2022/05/08 07:43:25;;;;;;;7.65;2.72;;;16.10;71.80;;;;;;5016704;28;92357;-71
2022/05/08 07:45:52;;;;;;;7.13;2.17;;;16.00;71.20;;;;;;5015356;28;92500;-71
2022/05/08 07:48:20;;;;;;;9.75;2.58;;;15.90;71.20;;;;;;5015561;28;92216;-71
2022/05/08 07:50:47;;;;;;;7.88;2.58;;;15.80;71.40;;;;;;5015236;28;92465;-71
2022/05/08 07:53:19;;;;;;;6.03;2.60;;;15.90;71.70;;;;;;5015561;28;92961;-71
2022/05/08 07:55:51;;;;;;;6.53;2.10;;;15.90;71.50;;;;;;4997349;28;94888;-71
2022/05/08 07:58:21;;;;;;;8.57;2.83;;;15.90;70.70;;;;;;5014870;28;95738;-71
2022/05/08 08:00:55;;;;;;;10.18;2.13;;;15.90;70.40;;;;;;4998125;28;95432;-71
2022/05/08 08:03:23;;;;;;;8.90;2.83;;;16.00;71.00;;;;;;5015131;28;92567;-71
2022/05/08 08:05:51;;;;;;;8.75;2.47;;;16.10;70.80;;;;;;5014797;28;92510;-71
2022/05/08 08:08:36;;;;;;;11.32;2.65;;;16.20;70.10;;;;;;5014417;28;95808;-71
2022/05/08 08:11:03;;;;;;;9.27;2.20;;;16.10;70.40;;;;;;5015725;28;105014;-71
2022/05/08 08:13:32;;;;;;;7.03;3.75;;;16.00;69.60;;;;;;4998583;28;91784;-71
2022/05/08 08:16:01;;;;;;;6.18;2.30;;;16.30;70.20;;;;;;5015699;28;92476;-71
2022/05/08 08:18:28;;;;;;;6.72;5.10;;;17.00;68.40;;;;;;5016039;28;93764;-71
2022/05/08 08:20:56;;;;;;;9.75;3.72;;;17.60;65.70;;;;;;5013298;28;95104;-71
2022/05/08 08:23:23;;;;;;;7.97;4.57;;;18.10;64.10;;;;;;5016178;28;92615;-72
2022/05/08 08:25:51;;;;;;;7.55;2.33;;;19.00;62.60;;;;;;4997737;28;92360;-71
2022/05/08 08:28:18;;;;;;;6.68;2.97;;;19.90;61.70;;;;;;5014544;28;93238;-71
2022/05/08 08:30:45;;;;;;;10.05;4.75;;;20.70;58.10;;;;;;5015895;28;92902;-71
2022/05/08 08:33:12;;;;;;;7.85;3.55;;;21.10;55.40;;;;;;5014689;28;92612;-72
2022/05/08 08:35:40;;;;;;;7.60;2.97;;;21.60;53.90;;;;;;5015624;28;92506;-71
2022/05/08 08:38:08;;;;;;;8.20;4.25;;;21.90;53.30;;;;;;5014756;28;95153;-72
2022/05/08 08:40:42;;;;;;;6.43;2.63;;;22.00;51.10;;;;;;5015694;28;92732;-72
2022/05/08 08:43:11;;;;;;;6.00;4.00;;;22.30;49.00;;;;;;5014346;28;92667;-72
2022/05/08 08:48:29;;;;;;;7.45;2.90;;;21.70;48.10;;;;;;5014217;28;95757;-72
2022/05/08 08:50:58;;;;;;;6.32;2.88;;;22.20;47.40;;;;;;5014286;28;93054;-72
2022/05/08 08:53:26;;;;;;;6.75;2.72;;;22.10;46.80;;;;;;5015580;28;92387;-72
2022/05/08 08:55:53;;;;;;;7.80;2.17;;;21.90;46.20;;;;;;5014421;28;92911;-71
2022/05/08 08:58:21;;;;;;;8.27;3.03;;;21.60;45.70;;;;;;5015484;28;92950;-71
2022/05/08 09:00:50;;;;;;;7.53;2.78;;;21.50;45.80;;;;;;5013707;28;94751;-71
2022/05/08 09:03:29;;;;;;;7.97;3.63;;;21.00;46.80;;;;;;5016011;28;91729;-72
2022/05/08 09:06:02;;;;;;;6.05;2.40;;;20.60;48.30;;;;;;5013820;28;92518;-71
2022/05/08 09:08:35;;;;;;;;;;;20.00;49.50;;;;;;5015788;28;93163;-71
2022/05/08 09:11:02;;;;;;;7.68;2.53;;;19.10;51.90;;;;;;5014018;28;94965;-72
2022/05/08 09:13:30;;;;;;;7.68;3.08;;;18.60;51.90;;;;;;5014029;28;92455;-71
2022/05/08 09:16:06;;;;;;;10.18;2.67;;;18.30;52.40;;;;;;5014880;28;92423;-71
2022/05/08 09:18:44;;;;;;;8.18;3.20;;;18.00;55.90;;;;;;5013817;28;92884;-71
2022/05/08 09:24:11;;;;;;;9.13;3.10;;;17.70;55.80;;;;;;5014110;28;92948;-71
2022/05/08 09:26:39;;;;;;;9.82;2.15;;;17.40;57.80;;;;;;5013940;28;92584;-71
2022/05/08 09:29:09;;;;;;;3.97;2.47;;;17.40;57.60;;;;;;5015430;28;91703;-71
2022/05/08 09:31:41;;;;;;;8.00;2.47;;;17.20;58.30;;;;;;5014924;28;92474;-71
2022/05/08 09:34:14;;;;;;;9.18;2.85;;;17.10;59.90;;;;;;5013750;28;92480;-72
2022/05/08 09:36:41;;;;;;;9.23;2.55;;;16.90;60.60;;;;;;5013976;28;95096;-71
2022/05/08 09:39:08;;;;;;;8.27;2.25;;;16.90;60.50;;;;;;5013489;28;95820;-71
2022/05/08 09:41:37;;;;;;;6.38;3.05;;;16.70;61.20;;;;;;5014864;28;93080;-71
2022/05/08 09:44:15;;;;;;;6.75;2.63;;;16.60;60.70;;;;;;5014765;28;92431;-71
2022/05/08 09:46:46;;;;;;;10.00;2.80;;;16.60;61.60;;;;;;5015097;28;92410;-71
2022/05/08 09:49:18;;;;;;;10.32;2.53;;;16.50;60.50;;;;;;5014853;28;93305;-71
2022/05/08 09:51:46;;;;;;;10.55;3.10;;;16.50;60.80;;;;;;5014749;28;92984;-71
2022/05/08 09:54:18;;;;;;;9.50;2.63;;;16.40;61.20;;;;;;5015199;28;91590;-71
2022/05/08 09:56:49;;;;;;;9.38;2.30;;;16.40;61.20;;;;;;5015056;28;92843;-71
2022/05/08 09:59:16;;;;;;;6.00;2.58;;;16.40;61.80;;;;;;5013244;28;96274;-71
2022/05/08 10:01:43;;;;;;;7.03;2.10;;;16.30;60.80;;;;;;5013435;28;94810;-71
2022/05/08 10:04:11;;;;;;;4.97;2.33;;;16.30;61.10;;;;;;5015682;28;92540;-71
2022/05/08 10:06:40;;;;;;;8.55;2.40;;;16.30;61.00;;;;;;5016603;28;100363;-71
2022/05/08 10:14:40;;;;;;;8.27;2.17;;;16.30;61.60;;;;;;5018299;28;92437;-71
2022/05/08 10:17:08;;;;;;;6.78;2.28;;;16.30;62.10;;;;;;5016158;28;92625;-71
2022/05/08 10:19:34;;;;;;;10.82;3.00;;;16.30;60.60;;;;;;5018264;28;92431;-71
2022/05/08 10:22:03;;;;;;;11.82;3.50;;;16.30;60.50;;;;;;5016471;28;92843;-71
2022/05/08 10:24:39;;;;;;;10.30;2.80;;;16.30;61.50;;;;;;5016675;28;92651;-71
2022/05/08 10:27:23;;;;;;;10.88;2.38;;;16.30;61.80;;;;;;5015146;28;94787;-71
2022/05/08 10:29:50;;;;;;;6.05;2.22;;;16.40;62.30;;;;;;5017594;28;93194;-71
2022/05/08 10:32:32;;;;;;;8.13;2.13;;;16.40;63.30;;;;;;5016392;28;93588;-71
2022/05/08 10:35:14;;;;;;;7.22;3.15;;;16.60;62.00;;;;;;5016388;28;92562;-71
2022/05/08 10:37:42;;;;;;;8.55;2.47;;;16.60;61.80;;;;;;5017751;28;92493;-71
2022/05/08 10:40:21;;;;;;;9.02;2.58;;;16.60;61.50;;;;;;5017378;28;93267;-71
2022/05/08 10:42:56;;;;;;;7.72;3.42;;;16.80;61.90;;;;;;5016393;28;93004;-71
2022/05/08 10:45:32;;;;;;;8.85;2.53;;;16.70;61.90;;;;;;5018258;28;91726;-71
2022/05/08 10:48:12;;;;;;;10.13;2.75;;;16.80;61.70;;;;;;5016067;28;92432;-71
2022/05/08 10:50:54;;;;;;;9.02;3.15;;;16.80;61.90;;;;;;5015847;28;99779;-71
2022/05/08 10:53:32;;;;;;;12.75;4.55;;;16.90;61.70;;;;;;5016130;28;94948;-71
2022/05/08 10:56:05;;;;;;;8.15;3.03;;;17.00;60.60;;;;;;5017443;28;92448;-71
2022/05/08 10:58:36;;;;;;;11.52;2.65;;;17.00;60.90;;;;;;5017568;28;92468;-71
2022/05/08 11:01:09;;;;;;;9.88;3.42;;;17.10;61.20;;;;;;5017307;28;93267;-71
2022/05/08 11:03:36;;;;;;;7.95;3.22;;;17.00;61.10;;;;;;5015824;28;95635;-71
2022/05/08 11:06:05;;;;;;;10.35;3.55;;;17.10;60.70;;;;;;5017258;28;92835;-71
2022/05/08 11:08:35;;;;;;;9.80;3.10;;;17.20;60.30;;;;;;5015724;28;92505;-71
2022/05/08 11:11:07;;;;;;;10.25;3.03;;;17.20;60.20;;;;;;5015760;28;93527;-71
2022/05/08 11:13:38;;;;;;;6.80;2.65;;;17.30;60.10;;;;;;5015193;28;93816;-71
2022/05/08 11:16:05;;;;;;;6.63;2.53;;;17.40;59.40;;;;;;5015415;28;92448;-71
2022/05/08 11:18:32;;;;;;;7.20;1.98;;;17.30;59.20;;;;;;5016027;28;94865;-71
2022/05/08 11:21:04;;;;;;;9.50;3.17;;;17.30;58.90;;;;;;5015434;28;93246;-71
2022/05/08 11:23:42;;;;;;;7.88;3.80;;;17.40;59.70;;;;;;5015425;28;95357;-71
2022/05/08 11:26:10;;;;;;;10.52;2.80;;;17.50;59.50;;;;;;5017074;28;92853;-71
2022/05/08 11:28:55;;;;;;;9.98;2.60;;;17.40;59.70;;;;;;5015648;28;92410;-71
2022/05/08 11:31:27;;;;;;;11.85;3.42;;;17.40;59.70;;;;;;5016939;28;93204;-71
2022/05/08 11:36:44;;;;;;;8.30;2.78;;;17.40;59.50;;;;;;5017557;28;91611;-71
2022/05/08 11:39:19;;;;;;;7.80;2.70;;;17.40;60.00;;;;;;5016597;28;92457;-71
2022/05/08 11:41:51;;;;;;;9.30;3.78;;;17.40;59.80;;;;;;5016789;28;93232;-71
2022/05/08 11:44:21;;;;;;;8.90;2.42;;;17.50;60.10;;;;;;5013315;28;95780;-71
2022/05/08 11:46:57;;;;;;;8.02;3.67;;;17.40;59.30;;;;;;5015289;28;92531;-71
2022/05/08 11:49:24;;;;;;;7.88;2.55;;;17.40;59.60;;;;;;5015368;28;92519;-71
2022/05/08 11:51:53;;;;;;;7.90;3.05;;;17.30;60.20;;;;;;5016549;28;93268;-71
2022/05/08 11:54:24;;;;;;;10.57;3.67;;;17.40;61.00;;;;;;5016202;28;92383;-71
2022/05/08 11:57:14;;;;;;;10.32;2.83;;;17.50;59.40;;;;;;5015147;28;92504;-71
2022/05/08 11:59:43;;;;;;;8.23;2.42;;;17.60;59.10;;;;;;5014848;28;93483;-71
2022/05/08 12:02:11;;;;;;;8.23;2.65;;;17.50;59.20;;;;;;5015067;28;93518;-71
2022/05/08 12:04:38;;;;;;;8.15;3.88;;;17.60;59.20;;;;;;5016205;28;92398;-71
2022/05/08 12:07:10;;;;;;;9.90;3.63;;;17.60;59.30;;;;;;5014650;28;92438;-71
2022/05/08 12:09:44;;;;;;;7.03;2.50;;;17.80;59.30;;;;;;5013840;28;94827;-71
2022/05/08 12:12:29;;;;;;;7.43;2.70;;;17.80;59.30;;;;;;5014744;28;93657;-71
2022/05/08 12:15:08;;;;;;;7.15;2.65;;;17.80;55.90;;;;;;5014761;28;92928;-72
2022/05/08 12:17:45;;;;;;;9.25;2.20;;;17.70;57.30;;;;;;5015765;28;92609;-72
2022/05/08 12:20:12;;;;;;;9.90;3.58;;;17.70;57.00;;;;;;5014647;28;92441;-72
2022/05/08 12:22:41;;;;;;;6.03;3.45;;;17.80;57.30;;;;;;5016178;28;93139;-72
2022/05/08 12:25:12;;;;;;;10.57;2.78;;;17.80;57.00;;;;;;5014769;28;93013;-72
2022/05/08 12:27:40;;;;;;;8.32;3.65;;;17.80;57.40;;;;;;5014929;28;91938;-72
2022/05/08 12:30:10;;;;;;;6.20;2.85;;;17.80;56.80;;;;;;5014551;28;92781;-72
2022/05/08 12:32:39;;;;;;;11.95;3.58;;;17.90;57.50;;;;;;5014414;28;95701;-72
2022/05/08 12:35:08;;;;;;;9.07;3.03;;;17.90;56.40;;;;;;5013163;28;94917;-72
2022/05/08 12:37:37;;;;;;;7.95;3.15;;;17.80;56.00;;;;;;5014778;28;92448;-72
2022/05/08 12:40:06;;;;;;;8.25;2.40;;;17.80;56.30;;;;;;4997920;28;92550;-72
2022/05/08 12:42:33;;;;;;;8.95;2.50;;;17.80;55.90;;;;;;5014187;28;95861;-72
2022/05/08 12:45:00;;;;;;;8.70;3.90;;;17.90;56.80;;;;;;5015795;28;93389;-72
2022/05/08 12:47:28;;;;;;;8.52;3.90;;;18.00;56.10;;;;;;5015822;28;92424;-72
2022/05/08 12:49:57;;;;;;;5.47;2.10;;;18.10;56.10;;;;;;5013451;28;92539;-71
2022/05/08 12:52:24;;;;;;;6.30;3.03;;;18.10;56.10;;;;;;5014239;28;95046;-71
2022/05/08 12:54:51;;;;;;;6.32;2.15;;;18.20;55.80;;;;;;5014109;28;94876;-72
2022/05/08 13:00:05;;;;;;;6.18;2.30;;;18.30;56.50;;;;;;5014780;28;94902;-71
2022/05/08 13:02:32;;;;;;;7.15;3.17;;;18.20;54.90;;;;;;5015294;28;93252;-72
2022/05/08 13:05:00;;;;;;;4.47;2.70;;;18.30;55.40;;;;;;4980941;28;95910;-72
2022/05/08 13:07:27;;;;;;;6.90;2.80;;;18.30;55.80;;;;;;5015452;28;92477;-72
2022/05/08 13:09:54;;;;;;;8.98;3.40;;;18.40;55.10;;;;;;5013962;28;92557;-71
2022/05/08 13:12:23;;;;;;;6.93;2.40;;;18.30;55.70;;;;;;5013662;28;95899;-71
2022/05/08 13:14:52;;;;;;;4.70;2.97;;;18.30;55.50;;;;;;4997639;28;92901;-71
2022/05/08 13:17:19;;;;;;;7.32;2.38;;;18.30;55.70;;;;;;5013792;28;91765;-72
2022/05/08 13:19:46;;;;;;;6.63;2.58;;;18.40;55.60;;;;;;5015283;28;92431;-71
2022/05/08 13:22:13;;;;;;;7.70;3.75;;;18.40;54.10;;;;;;5013250;28;95762;-72
2022/05/08 13:24:43;;;;;;;6.97;2.53;;;18.40;54.90;;;;;;5012418;28;95392;-72
2022/05/08 13:27:12;;;;;;;6.30;2.50;;;18.40;54.10;;;;;;4997483;28;92588;-72
2022/05/08 13:29:39;;;;;;;5.05;1.90;;;18.30;54.00;;;;;;4997275;28;92494;-71
2022/05/08 13:32:06;;;;;;;6.43;3.53;;;18.40;55.00;;;;;;4997306;28;93246;-71
2022/05/08 13:34:33;;;;;;;10.00;2.83;;;18.30;53.20;;;;;;4996890;28;92868;-71